Terminal Aerodrome Forecast
Issued by NWS Tulsa, OK

Home | Current Version | Previous Version | Text Only | Print | Product List | Glossary On
Versions: 1 2 3 4 5 6 7 8 9 10 11 12 13
000
FTUS44 KTSA 282047 AAA
TAFFSM
TAF AMD
KFSM 282047Z 2821/2918 09006KT P6SM SCT030
      TEMPO 2821/2823 5SM -TSRA BKN040CB
     FM290100 08003KT P6SM SCT250
     FM291600 08005KT P6SM SCT040=

USA.gov is the U.S. government's official web portal to all federal, state and local government web resources and services.